Flight Track Log - Related Links

Times and Time Zones

All times are in EDT time to prevent confusion due to time zone crossing. See the UAL33 flight status page for this flight to view local times or setup timezone preferences in your user account.

Time Position Orientation Groundspeed Altitude Reporting Facility
EDT Latitude Longitude Course Direction KTS MPH feet Rate Location/Type
Mon 05:38:12 PM 29.9687 -95.3461 244° Southwest 159 183 200  Level FlightAware ADS-B
Mon 05:38:28 PM 29.9582 -95.3398 153° Southeast 159 183 800 2,129 Climbing FlightAware ADS-B
Mon 05:38:43 PM 29.9484 -95.3332 150° Southeast 166 191 1,300 1,895 Climbing FlightAware ADS-B
Mon 05:38:47 PM 29.9461 -95.3308 138° Southeast 178 205 1,400 750 Climbing FlightAware ADS-B
Mon 05:38:51 PM 29.9436 -95.3272 129° Southeast 187 215 1,400 750 Level FlightAware ADS-B
Mon 05:38:55 PM 29.9422 -95.3241 118° Southeast 193 222 1,500 1,500 Climbing FlightAware ADS-B
Mon 05:39:03 PM 29.9404 -95.3152 103° East 204 235 1,700 1,385 Climbing FlightAware ADS-B
Mon 05:39:08 PM 29.9404 -95.3094 90° East 221 254 1,800 1,200 Climbing FlightAware ADS-B
Mon 05:39:13 PM 29.9415 -95.3036 78° East 233 268 1,900 1,333 Climbing FlightAware ADS-B
Mon 05:39:17 PM 29.9429 -95.2991 70° East 238 274 2,000 1,714 Climbing FlightAware ADS-B
Mon 05:39:20 PM 29.9445 -95.2954 63° Northeast 246 283 2,100 2,000 Climbing FlightAware ADS-B
Mon 05:39:23 PM 29.9463 -95.2922 57° Northeast 254 292 2,200 2,000 Climbing FlightAware ADS-B
Mon 05:39:26 PM 29.9485 -95.2889 52° Northeast 259 298 2,300 2,250 Climbing FlightAware ADS-B
Mon 05:39:31 PM 29.9528 -95.2843 43° Northeast 265 305 2,500 2,250 Climbing FlightAware ADS-B
Mon 05:39:34 PM 29.9564 -95.2812 37° Northeast 270 311 2,600 1,714 Climbing FlightAware ADS-B
Mon 05:39:38 PM 29.9599 -95.2788 31° Northeast 274 315 2,700 2,571 Climbing FlightAware ADS-B
Mon 05:39:41 PM 29.9634 -95.2769 25° Northeast 277 319 2,900 3,429 Climbing FlightAware ADS-B
Mon 05:39:45 PM 29.9686 -95.2749 18° North 281 323 3,100 2,571 Climbing FlightAware ADS-B
Mon 05:39:48 PM 29.9724 -95.2739 13° North 283 326 3,200 2,000 Climbing FlightAware ADS-B
Mon 05:39:51 PM 29.9768 -95.2732 North 285 328 3,300 2,000 Climbing FlightAware ADS-B
Mon 05:39:54 PM 29.9811 -95.2729 North 285 328 3,400 2,667 Climbing FlightAware ADS-B
Mon 05:40:00 PM 29.9882 -95.2732 358° North 285 328 3,700 3,652 Climbing FlightAware ADS-B
Mon 05:40:17 PM 30.0114 -95.2758 354° North 286 329 4,800 3,517 Climbing FlightAware ADS-B
Mon 05:40:29 PM 30.0263 -95.2802 340° North 288 331 5,400 3,346 Climbing FlightAware ADS-B
Mon 05:41:09 PM 30.0703 -95.3147 325° Northwest 291 335 7,700 3,491 Climbing FlightAware ADS-B
Mon 05:41:24 PM 30.0860 -95.3314 316° Northwest 292 336 8,600 3,429 Climbing FlightAware ADS-B
Mon 05:41:37 PM 30.0973 -95.3450 315° West 296 341 9,300 3,176 Climbing FlightAware ADS-B
Mon 05:41:41 PM 30.1023 -95.3500 319° Northwest 298 343 9,500 2,571 Climbing FlightAware ADS-B
Mon 05:41:44 PM 30.1056 -95.3528 324° Northwest 299 344 9,600 2,667 Climbing FlightAware ADS-B
Mon 05:41:50 PM 30.1124 -95.3579 327° Northwest 300 345 9,900 3,000 Climbing FlightAware ADS-B
Mon 05:41:58 PM 30.1224 -95.3651 328° Northwest 304 350 10,300 2,291 Climbing FlightAware ADS-B
Mon 05:42:45 PM 30.1825 -95.4093 328° Northwest 344 396 12,000 2,718 Climbing FlightAware ADS-B
Mon 05:43:55 PM 30.2814 -95.4777 329° Northwest 359 413 15,600 2,942 Climbing FlightAware ADS-B
Mon 05:44:29 PM 30.3323 -95.5126 329° Northwest 376 433 17,100 2,719 Climbing FlightAware ADS-B
Mon 05:44:59 PM 30.3778 -95.5435 330° Northwest 383 441 18,500 2,571 Climbing FlightAware ADS-B
Mon 05:45:32 PM 30.4282 -95.5782 329° Northwest 392 451 19,800 2,545 Climbing FlightAware ADS-B
Mon 05:46:05 PM 30.4802 -95.6140 329° Northwest 395 455 21,300 2,604 Climbing FlightAware ADS-B
Mon 05:46:25 PM 30.5111 -95.6352 329° Northwest 398 458 22,100 2,432 Climbing FlightAware ADS-B
Mon 05:46:42 PM 30.5394 -95.6532 331° Northwest 400 460 22,800 2,553 Climbing FlightAware ADS-B
Mon 05:47:12 PM 30.5902 -95.6812 335° Northwest 401 461 24,100 2,185 Climbing FlightAware ADS-B
Mon 05:49:13 PM 30.8002 -95.7936 335° Northwest 423 487 28,300 2,026 Climbing FlightAware ADS-B
Mon 05:49:43 PM 30.8540 -95.8225 335° Northwest 430 495 29,200 1,770 Climbing FlightAware ADS-B
Mon 05:50:14 PM 30.9096 -95.8524 335° Northwest 438 504 30,100 1,770 Climbing FlightAware ADS-B
Mon 05:50:44 PM 30.9651 -95.8822 335° Northwest 442 509 31,000 1,806 Climbing FlightAware ADS-B
Mon 05:51:47 PM 31.0829 -95.9457 335° Northwest 449 517 32,900 1,823 Climbing FlightAware ADS-B
Mon 05:52:03 PM 31.1148 -95.9609 338° Northwest 449 517 33,400 1,714 Climbing FlightAware ADS-B
Mon 05:52:15 PM 31.1382 -95.9696 342° North 450 518 33,700 1,714 Climbing FlightAware ADS-B
Mon 05:52:24 PM 31.1576 -95.9755 345° North 451 519 34,000 1,500 Climbing FlightAware ADS-B
Mon 05:52:55 PM 31.2205 -95.9903 349° North 454 522 34,700 1,439 Climbing FlightAware ADS-B
Mon 05:55:40 PM 31.5610 -96.0703 349° North 446 513 38,700 1,075 Climbing FlightAware ADS-B
Mon 05:56:55 PM 31.7122 -96.1058 349° North 445 512 39,000 140 Climbing FlightAware ADS-B
Mon 05:57:49 PM 31.8220 -96.1317 349° North 447 514 39,000  Level FlightAware ADS-B
Mon 05:59:48 PM 32.0620 -96.1890 348° North 446 513 39,000  Level FlightAware ADS-B
Mon 06:00:47 PM 32.1827 -96.2150 351° North 450 518 39,000  Level FlightAware ADS-B
Mon 06:01:19 PM 32.2506 -96.2189 357° North 456 525 39,000  Level FlightAware ADS-B
Mon 06:01:54 PM 32.3240 -96.2200 359° North 456 525 39,000  Level FlightAware ADS-B
Mon 06:03:05 PM 32.4747 -96.2216 359° North 457 526 39,000  Level FlightAware ADS-B
Mon 06:04:00 PM 32.5920 -96.2230 359° North 467 537 39,000  Level FlightAware ADS-B
Mon 06:04:44 PM 32.6900 -96.2240 360° North 469 540 39,000  Level FlightAware ADS-B
Mon 06:05:24 PM 32.7740 -96.2250 359° North 469 540 39,000  Level FlightAware ADS-B
Mon 06:06:06 PM 32.8660 -96.2260 359° North 471 542 39,000  Level FlightAware ADS-B
Mon 06:06:50 PM 32.9640 -96.2270 360° North 473 544 39,000  Level FlightAware ADS-B
Mon 06:07:30 PM 33.0510 -96.2280 359° North 473 544 39,000  Level FlightAware ADS-B
Mon 06:08:10 PM 33.1370 -96.2290 359° North 473 544 39,000  Level FlightAware ADS-B
Mon 06:08:54 PM 33.2350 -96.2310 359° North 476 548 39,000  Level FlightAware ADS-B
Mon 06:09:37 PM 33.3290 -96.2320 359° North 476 548 39,000  Level FlightAware ADS-B
Mon 06:10:20 PM 33.4240 -96.2330 359° North 476 548 39,000 280 Level FlightAware ADS-B
Mon 06:11:24 PM 33.5630 -96.2240 North 484 557 39,500 556 Climbing FlightAware ADS-B
Mon 06:12:08 PM 33.6610 -96.1920 15° North 485 558 40,000 565 Climbing FlightAware ADS-B
Mon 06:12:49 PM 33.7470 -96.1630 16° North 488 562 40,300 585 Climbing FlightAware ADS-B
Mon 06:13:30 PM 33.8380 -96.1320 16° North 487 560 40,800 494 Climbing FlightAware ADS-B
Mon 06:14:14 PM 33.9350 -96.0990 16° North 485 558 41,000 143 Climbing FlightAware ADS-B
Mon 06:14:54 PM 34.0200 -96.0690 16° North 484 557 41,000  Level FlightAware ADS-B
Mon 06:15:39 PM 34.1150 -96.0370 16° North 483 556 41,000  Level FlightAware ADS-B
Mon 06:16:21 PM 34.2060 -96.0060 16° North 481 554 41,000  Level FlightAware ADS-B
Mon 06:17:01 PM 34.2910 -95.9770 16° North 483 556 41,000  Level FlightAware ADS-B
Mon 06:17:42 PM 34.3810 -95.9450 16° North 482 555 41,000  Level FlightAware ADS-B
Mon 06:18:25 PM 34.4690 -95.9150 16° North 483 556 41,000  Level FlightAware ADS-B
Mon 06:19:09 PM 34.5670 -95.8810 16° North 486 559 41,000  Level FlightAware ADS-B
Mon 06:19:45 PM 34.6450 -95.8540 16° North 485 558 41,000  Level FlightAware ADS-B
Mon 06:20:30 PM 34.7410 -95.8200 16° North 487 560 41,000  Level FlightAware ADS-B
Mon 06:21:12 PM 34.8330 -95.7830 18° North 493 567 41,000  Level FlightAware ADS-B
Mon 06:21:54 PM 34.9110 -95.7110 37° Northeast 504 580 41,000  Level FlightAware ADS-B
Mon 06:22:35 PM 34.9790 -95.6320 44° Northeast 500 575 41,000  Level FlightAware ADS-B
Mon 06:23:17 PM 35.0370 -95.5640 44° Northeast 500 575 41,000  Level FlightAware ADS-B
Mon 06:23:53 PM 35.0870 -95.5040 44° Northeast 500 575 41,000  Level FlightAware ADS-B
Mon 06:24:41 PM 35.1550 -95.4240 44° Northeast 500 575 41,000  Level FlightAware ADS-B
Mon 06:24:55 PM 35.1520 -95.2950 92° East 510 587 41,000  Level FlightAware ADS-B
Mon 06:25:33 PM 35.1920 -95.1990 63° Northeast 510 587 41,000  Level FlightAware ADS-B
Mon 06:26:35 PM 35.2580 -95.0380 63° Northeast 513 590 41,000  Level FlightAware ADS-B
Mon 06:27:16 PM 35.3020 -94.9300 63° Northeast 512 589 41,000  Level FlightAware ADS-B
Mon 06:28:00 PM 35.3480 -94.8180 63° Northeast 513 590 41,000  Level FlightAware ADS-B
Mon 06:28:36 PM 35.3870 -94.7230 63° Northeast 515 593 41,000  Level FlightAware ADS-B
Mon 06:29:22 PM 35.4360 -94.6030 63° Northeast 514 592 41,000  Level FlightAware ADS-B
Mon 06:30:04 PM 35.4790 -94.4970 63° Northeast 511 588 41,000  Level FlightAware ADS-B
Mon 06:30:45 PM 35.5220 -94.3890 64° Northeast 510 587 41,000  Level FlightAware ADS-B
Mon 06:31:29 PM 35.5690 -94.2740 63° Northeast 511 588 41,000  Level FlightAware ADS-B
Mon 06:32:10 PM 35.6110 -94.1700 64° Northeast 510 587 41,000  Level FlightAware ADS-B
Mon 06:32:25 PM 35.6350 -94.1360 49° Northeast 503 579 41,000  Level FlightAware ADS-B
Mon 06:32:53 PM 35.6910 -94.0950 31° Northeast 493 567 41,000  Level FlightAware ADS-B
Mon 06:33:33 PM 35.7800 -94.0670 14° North 491 565 41,000  Level FlightAware ADS-B
Mon 06:34:18 PM 35.8760 -94.0360 15° North 497 572 41,000  Level FlightAware ADS-B
Mon 06:34:58 PM 35.9660 -94.0070 15° North 499 574 41,000  Level FlightAware ADS-B
Mon 06:35:42 PM 36.0660 -93.9750 15° North 500 575 41,000  Level FlightAware ADS-B
Mon 06:36:24 PM 36.1590 -93.9450 15° North 498 573 41,000  Level FlightAware ADS-B
Mon 06:37:04 PM 36.2480 -93.9160 15° North 495 570 41,000  Level FlightAware ADS-B
Mon 06:37:48 PM 36.3470 -93.8850 14° North 496 571 41,000  Level FlightAware ADS-B
Mon 06:38:29 PM 36.4360 -93.8560 15° North 498 573 41,000  Level FlightAware ADS-B
Mon 06:39:12 PM 36.5330 -93.8240 15° North 503 579 41,000  Level FlightAware ADS-B
Mon 06:39:54 PM 36.6300 -93.7930 14° North 503 579 41,000  Level FlightAware ADS-B
Mon 06:40:34 PM 36.7190 -93.7640 15° North 504 580 41,000  Level FlightAware ADS-B
Mon 06:41:16 PM 36.8140 -93.7320 15° North 504 580 41,000  Level FlightAware ADS-B
Mon 06:41:57 PM 36.9050 -93.7030 14° North 503 579 41,000  Level FlightAware ADS-B
Mon 06:42:42 PM 37.0080 -93.6680 15° North 504 580 41,000  Level FlightAware ADS-B
Mon 06:43:24 PM 37.1000 -93.6240 21° North 501 577 41,000  Level FlightAware ADS-B
Mon 06:44:04 PM 37.1810 -93.5740 26° Northeast 500 575 41,000  Level FlightAware ADS-B
Mon 06:44:46 PM 37.2700 -93.5200 26° Northeast 500 575 41,000  Level FlightAware ADS-B
Mon 06:45:28 PM 37.3560 -93.4670 26° Northeast 501 577 41,000  Level FlightAware ADS-B
Mon 06:46:12 PM 37.4490 -93.4100 26° Northeast 499 574 41,000  Level FlightAware ADS-B
Mon 06:46:52 PM 37.5290 -93.3610 26° Northeast 497 572 41,000  Level FlightAware ADS-B
Mon 06:47:36 PM 37.6210 -93.3040 26° Northeast 495 570 41,000  Level FlightAware ADS-B
Mon 06:48:16 PM 37.7040 -93.2520 26° Northeast 496 571 41,000  Level FlightAware ADS-B
Mon 06:48:58 PM 37.7920 -93.1980 26° Northeast 496 571 41,000  Level FlightAware ADS-B
Mon 06:49:42 PM 37.8820 -93.1420 26° Northeast 501 577 41,000  Level FlightAware ADS-B
Mon 06:50:22 PM 37.9640 -93.0900 27° Northeast 504 580 41,000  Level FlightAware ADS-B
Mon 06:51:06 PM 38.0530 -93.0350 26° Northeast 505 581 41,000  Level FlightAware ADS-B
Mon 06:51:48 PM 38.1460 -92.9760 27° Northeast 508 585 41,000  Level FlightAware ADS-B
Mon 06:52:29 PM 38.2300 -92.9240 26° Northeast 507 583 41,000  Level FlightAware ADS-B
Mon 06:53:09 PM 38.3160 -92.8690 27° Northeast 508 585 41,000  Level FlightAware ADS-B
Mon 06:53:53 PM 38.4090 -92.8110 26° Northeast 508 585 41,000  Level FlightAware ADS-B
Mon 06:54:46 PM 38.5040 -92.7510 26° Northeast 508 585 41,000  Level FlightAware ADS-B
Mon 06:55:33 PM 38.5890 -92.6980 26° Northeast 508 585 41,000  Level FlightAware ADS-B
Mon 06:56:14 PM 38.7060 -92.6220 27° Northeast 509 586 41,000  Level FlightAware ADS-B
Mon 06:56:51 PM 38.7800 -92.5740 27° Northeast 506 582 41,000  Level FlightAware ADS-B
Mon 06:57:37 PM 38.8670 -92.4880 38° Northeast 507 583 41,000  Level FlightAware ADS-B
Mon 06:58:16 PM 38.9200 -92.4110 48° Northeast 498 573 41,000  Level FlightAware ADS-B
Mon 06:59:15 PM 39.0080 -92.2840 48° Northeast 478 550 41,000  Level FlightAware ADS-B
Mon 06:59:51 PM 39.0540 -92.2190 48° Northeast 478 550 41,000  Level FlightAware ADS-B
Mon 07:00:41 PM 39.1270 -92.1110 49° Northeast 462 532 41,000  Level FlightAware ADS-B
Mon 07:01:20 PM 39.1910 -92.0150 49° Northeast 461 531 41,000  Level FlightAware ADS-B
Mon 07:02:04 PM 39.2520 -91.9250 49° Northeast 460 529 41,000  Level FlightAware ADS-B
Mon 07:02:48 PM 39.3070 -91.8450 48° Northeast 461 531 41,000  Level FlightAware ADS-B
Mon 07:03:36 PM 39.3750 -91.7420 49° Northeast 459 528 41,000  Level FlightAware ADS-B
Mon 07:04:22 PM 39.4460 -91.6370 49° Northeast 458 527 41,000  Level FlightAware ADS-B
Mon 07:05:37 PM 39.5400 -91.4970 49° Northeast 458 527 41,000  Level FlightAware ADS-B
Mon 07:06:16 PM 39.6010 -91.4040 50° Northeast 455 524 41,000  Level FlightAware ADS-B
Mon 07:06:54 PM 39.6550 -91.3240 49° Northeast 455 524 41,000  Level FlightAware ADS-B
Mon 07:07:42 PM 39.7190 -91.2270 49° Northeast 455 524 41,000  Level FlightAware ADS-B
Mon 07:08:22 PM 39.7730 -91.1460 49° Northeast 457 526 41,000  Level FlightAware ADS-B
Mon 07:09:04 PM 39.8320 -91.0560 49° Northeast 458 527 41,000  Level FlightAware ADS-B
Mon 07:09:46 PM 39.8900 -90.9680 49° Northeast 456 525 41,000  Level FlightAware ADS-B
Mon 07:10:24 PM 39.9420 -90.8890 49° Northeast 457 526 41,000  Level FlightAware ADS-B
Mon 07:11:22 PM 40.0210 -90.7670 50° Northeast 454 522 41,000  Level FlightAware ADS-B
Mon 07:11:52 PM 40.0520 -90.7020 58° Northeast 446 513 41,000  Level FlightAware ADS-B
Mon 07:12:08 PM 40.0580 -90.6570 80° East 442 509 41,000  Level FlightAware ADS-B
Mon 07:12:48 PM 40.0300 -90.5610 111° Southeast 428 493 41,000  Level FlightAware ADS-B
Mon 07:13:02 PM 40.0080 -90.5360 139° Southeast 424 488 41,000  Level FlightAware ADS-B
Mon 07:13:32 PM 39.9570 -90.5120 160° South 421 484 41,000  Level FlightAware ADS-B
Mon 07:14:00 PM 39.9000 -90.5230 188° South 423 487 41,000  Level FlightAware ADS-B
Mon 07:14:12 PM 39.8810 -90.5360 208° Southwest 428 493 41,000  Level FlightAware ADS-B
Mon 07:14:54 PM 39.8150 -90.6070 220° Southwest 436 502 41,000  Level FlightAware ADS-B
Mon 07:15:38 PM 39.7480 -90.6820 221° Southwest 436 502 41,000  Level FlightAware ADS-B
Mon 07:16:16 PM 39.6920 -90.7450 221° Southwest 429 494 41,000  Level FlightAware ADS-B
Mon 07:17:02 PM 39.6200 -90.8230 220° Southwest 420 483 41,000  Level FlightAware ADS-B
Mon 07:17:44 PM 39.5850 -90.9140 244° Southwest 433 498 41,000  Level FlightAware ADS-B
Mon 07:18:12 PM 39.5940 -90.9900 279° West 446 513 41,000  Level FlightAware ADS-B
Mon 07:18:38 PM 39.6250 -91.0430 307° West 453 521 41,000  Level FlightAware ADS-B
Mon 07:18:54 PM 39.6510 -91.0640 328° Northwest 454 522 41,000  Level FlightAware ADS-B
Mon 07:19:46 PM 39.7590 -91.0680 358° North 449 517 41,000  Level FlightAware ADS-B
Mon 07:20:05 PM 39.7860 -91.0350 43° Northeast 441 507 41,000  Level FlightAware ADS-B
Mon 07:20:17 PM 39.7970 -91.0050 64° Northeast 437 503 41,000  Level FlightAware ADS-B
Mon 07:20:31 PM 39.8000 -90.9720 83° East 431 496 41,000  Level FlightAware ADS-B
Mon 07:21:13 PM 39.7810 -90.8640 103° East 427 491 41,000  Level FlightAware ADS-B
Mon 07:21:41 PM 39.7450 -90.8120 132° Southeast 417 480 41,000  Level FlightAware ADS-B
Mon 07:22:07 PM 39.6990 -90.7870 157° South 415 478 41,000  Level FlightAware ADS-B
Mon 07:22:43 PM 39.6330 -90.8000 189° South 418 481 41,000  Level FlightAware ADS-B
Mon 07:23:21 PM 39.5760 -90.8320 203° Southwest 418 481 41,000  Level FlightAware ADS-B
Mon 07:23:41 PM 39.5430 -90.8950 236° Southwest 431 496 41,000  Level FlightAware ADS-B
Mon 07:24:21 PM 39.4830 -90.9620 221° Southwest 435 501 41,000 -79 Level FlightAware ADS-B
Mon 07:24:57 PM 39.4290 -91.0220 221° Southwest 434 499 40,900 -686 Descending FlightAware ADS-B
Mon 07:25:31 PM 39.3900 -91.0950 235° Southwest 439 505 40,200 -1,125 Descending FlightAware ADS-B
Mon 07:25:45 PM 39.3850 -91.1300 260° West 443 510 40,000 -273 Descending FlightAware ADS-B
Mon 07:26:15 PM 39.4010 -91.2080 285° West 456 525 40,000  Level FlightAware ADS-B
Mon 07:26:27 PM 39.4170 -91.2350 307° West 459 528 40,000  Level FlightAware ADS-B
Mon 07:26:41 PM 39.4390 -91.2560 324° Northwest 460 529 40,000  Level FlightAware ADS-B
Mon 07:27:07 PM 39.4920 -91.2750 345° North 454 522 40,000  Level FlightAware ADS-B
Mon 07:27:39 PM 39.5560 -91.2490 17° North 444 511 40,000  Level FlightAware ADS-B
Mon 07:28:19 PM 39.6180 -91.1810 40° Northeast 445 512 40,000  Level FlightAware ADS-B
Mon 07:29:03 PM 39.6870 -91.1040 41° Northeast 443 510 40,000  Level FlightAware ADS-B
Mon 07:29:45 PM 39.7400 -91.0190 51° Northeast 429 494 40,000  Level FlightAware ADS-B
Mon 07:30:25 PM 39.7380 -90.9190 91° East 415 478 40,000  Level FlightAware ADS-B
Mon 07:30:39 PM 39.7250 -90.8920 122° Southeast 413 475 40,000  Level FlightAware ADS-B
Mon 07:31:09 PM 39.6790 -90.8450 142° Southeast 412 474 40,000  Level FlightAware ADS-B
Mon 07:32:05 PM 39.5760 -90.8610 187° South 426 490 40,000 -188 Level FlightAware ADS-B
Mon 07:32:45 PM 39.5170 -90.9260 220° Southwest 424 488 39,700 -1,085 Descending FlightAware ADS-B
Mon 07:33:39 PM 39.4410 -91.0210 224° Southwest 424 488 38,300 -1,543 Descending FlightAware ADS-B
Mon 07:33:55 PM 39.4280 -91.0530 242° Southwest 425 489 37,900 -712 Descending FlightAware ADS-B
Mon 07:34:38 PM 39.4040 -91.1450 251° West 429 494 37,600 -931 Descending FlightAware ADS-B
Mon 07:34:53 PM 39.4510 -91.1990 318° Northwest 464 534 37,000 -1,333 Descending FlightAware ADS-B
Mon 07:35:05 PM 39.4700 -91.2200 320° Northwest 467 537 37,000  Level FlightAware ADS-B
Mon 07:35:19 PM 39.4980 -91.2390 332° Northwest 468 539 37,000  Level FlightAware ADS-B
Mon 07:36:01 PM 39.5850 -91.2320 North 459 528 37,000 -349 Level FlightAware ADS-B
Mon 07:36:45 PM 39.6610 -91.1570 37° Northeast 448 516 36,500 -786 Descending FlightAware ADS-B
Mon 07:37:25 PM 39.7260 -91.0890 39° Northeast 452 520 35,900 -805 Descending FlightAware ADS-B
Mon 07:38:07 PM 39.7940 -91.0180 39° Northeast 446 513 35,400 -776 Descending FlightAware ADS-B
Mon 07:38:50 PM 39.8630 -90.9490 38° Northeast 443 510 34,800 -805 Descending FlightAware ADS-B
Mon 07:39:29 PM 39.9230 -90.8870 38° Northeast 440 506 34,300 -815 Descending FlightAware ADS-B
Mon 07:40:11 PM 39.9920 -90.8170 38° Northeast 437 503 33,700 -767 Descending FlightAware ADS-B
Mon 07:40:55 PM 40.0610 -90.7460 38° Northeast 432 497 33,200 -488 Descending FlightAware ADS-B
Mon 07:41:37 PM 40.1280 -90.6770 38° Northeast 423 487 33,000 -145 Descending FlightAware ADS-B
Mon 07:42:18 PM 40.1910 -90.6120 38° Northeast 422 486 33,000  Level FlightAware ADS-B
Mon 07:43:01 PM 40.2550 -90.5450 39° Northeast 429 494 33,000  Level FlightAware ADS-B
Mon 07:43:46 PM 40.3260 -90.4710 38° Northeast 428 493 33,000  Level FlightAware ADS-B
Mon 07:44:25 PM 40.3840 -90.4100 39° Northeast 421 484 33,000  Level FlightAware ADS-B
Mon 07:45:09 PM 40.4530 -90.3390 38° Northeast 424 488 33,000  Level FlightAware ADS-B
Mon 07:45:51 PM 40.5170 -90.2710 39° Northeast 426 490 33,000  Level FlightAware ADS-B
Mon 07:46:32 PM 40.5800 -90.2050 38° Northeast 423 487 33,000 -805 Level FlightAware ADS-B
Mon 07:47:13 PM 40.6430 -90.1390 38° Northeast 431 496 31,900 -1,906 Descending FlightAware ADS-B
Mon 07:47:57 PM 40.7150 -90.0630 39° Northeast 456 525 30,300 -1,786 Descending FlightAware ADS-B
Mon 07:48:37 PM 40.7800 -89.9930 39° Northeast 461 531 29,400 -1,357 Descending FlightAware ADS-B
Mon 07:49:21 PM 40.8530 -89.9160 39° Northeast 461 531 28,400 -1,357 Descending FlightAware ADS-B
Mon 07:50:01 PM 40.9200 -89.8440 39° Northeast 457 526 27,500 -1,694 Descending FlightAware ADS-B
Mon 07:50:46 PM 40.9820 -89.7510 49° Northeast 462 532 26,000 -2,000 Descending FlightAware ADS-B
Mon 07:51:25 PM 41.0290 -89.6580 56° Northeast 464 534 24,700 -1,807 Descending FlightAware ADS-B
Mon 07:52:09 PM 41.0820 -89.5550 56° Northeast 457 526 23,500 -1,229 Descending FlightAware ADS-B
Mon 07:52:48 PM 41.1260 -89.4700 55° Northeast 440 506 23,000 -1,012 Descending FlightAware ADS-B
Mon 07:53:32 PM 41.1770 -89.3700 56° Northeast 430 495 22,100 -1,286 Descending FlightAware ADS-B
Mon 07:54:12 PM 41.2210 -89.2850 55° Northeast 425 489 21,200 -1,341 Descending FlightAware ADS-B
Mon 07:54:57 PM 41.2700 -89.1880 56° Northeast 418 481 20,200 -1,735 Descending FlightAware ADS-B
Mon 07:55:35 PM 41.3120 -89.1060 56° Northeast 428 493 18,800 -2,429 Descending FlightAware ADS-B
Mon 07:56:21 PM 41.3640 -89.0030 56° Northeast 442 509 16,800 -2,643 Descending FlightAware ADS-B
Mon 07:56:59 PM 41.4070 -88.9180 56° Northeast 417 480 15,100 -2,488 Descending FlightAware ADS-B
Mon 07:57:43 PM 41.4510 -88.8300 56° Northeast 385 443 13,400 -2,318 Descending FlightAware ADS-B
Mon 07:58:27 PM 41.4940 -88.7450 56° Northeast 376 433 11,700 -1,714 Descending FlightAware ADS-B
Mon 07:59:07 PM 41.5300 -88.6640 59° Northeast 369 425 11,000 -500 Descending FlightAware ADS-B
Mon 07:59:51 PM 41.5620 -88.5800 63° Northeast 335 386 11,000 -73 Level FlightAware ADS-B
Mon 08:00:29 PM 41.5910 -88.5100 61° Northeast 340 391 10,900 -571 Descending FlightAware ADS-B
Mon 08:01:15 PM 41.6260 -88.4270 61° Northeast 338 389 10,200 -917 Descending FlightAware ADS-B
Mon 08:01:41 PM 41.6470 -88.3820 58° Northeast 328 377 9,800 -778 Descending FlightAware ADS-B
Mon 08:02:09 PM 41.6750 -88.3400 48° Northeast 321 369 9,500 -808 Descending FlightAware ADS-B
Mon 08:02:33 PM 41.7000 -88.3050 46° Northeast 317 365 9,100 -915 Descending FlightAware ADS-B
Mon 08:03:08 PM 41.7340 -88.2580 46° Northeast 315 362 8,600 -581 Descending FlightAware ADS-B
Mon 08:03:35 PM 41.7630 -88.2190 45° Northeast 315 362 8,500 -300 Descending FlightAware ADS-B
Mon 08:03:48 PM 41.7760 -88.2000 47° Northeast 315 362 8,400 -450 Descending FlightAware ADS-B
Mon 08:04:15 PM 41.8030 -88.1620 46° Northeast 316 364 8,200 -764 Descending FlightAware ADS-B
Mon 08:04:43 PM 41.8320 -88.1210 46° Northeast 318 366 7,700 -1,000 Descending FlightAware ADS-B
Mon 08:04:57 PM 41.8410 -88.1000 60° Northeast 331 381 7,500 -1,000 Descending FlightAware ADS-B
Mon 08:05:25 PM 41.8550 -88.0410 72° East 336 387 7,000 -536 Descending FlightAware ADS-B
Mon 08:05:53 PM 41.8670 -87.9860 74° East 336 387 7,000  Level FlightAware ADS-B
Mon 08:06:21 PM 41.8810 -87.9310 71° East 329 379 7,000  Level FlightAware ADS-B
Mon 08:06:49 PM 41.8910 -87.8770 76° East 327 376 7,000  Level FlightAware ADS-B
Mon 08:07:19 PM 41.8940 -87.8160 86° East 328 377 7,000 -286 Level FlightAware ADS-B
Mon 08:07:31 PM 41.8950 -87.7910 87° East 327 376 6,800 -1,143 Descending FlightAware ADS-B
Mon 08:08:01 PM 41.8970 -87.7300 87° East 328 377 6,200 -1,053 Descending FlightAware ADS-B
Mon 08:08:28 PM 41.8990 -87.6760 87° East 326 375 5,800 -764 Descending FlightAware ADS-B
Mon 08:08:56 PM 41.9010 -87.6200 87° East 320 368 5,500 -600 Descending FlightAware ADS-B
Mon 08:09:08 PM 41.9020 -87.5970 87° East 314 361 5,400 -450 Descending FlightAware ADS-B
Mon 08:09:36 PM 41.9040 -87.5450 87° East 299 344 5,200 -429 Descending FlightAware ADS-B
Mon 08:10:04 PM 41.9070 -87.4920 86° East 287 330 5,000 -273 Descending FlightAware ADS-B
Mon 08:10:20 PM 41.9150 -87.4690 65° Northeast 277 319 5,000  Level FlightAware ADS-B
Mon 08:10:32 PM 41.9260 -87.4540 45° Northeast 264 304 5,000  Level FlightAware ADS-B
Mon 08:10:48 PM 41.9440 -87.4480 14° North 228 262 5,000  Level FlightAware ADS-B
Mon 08:11:14 PM 41.9630 -87.4620 331° Northwest 187 215 5,000  Level FlightAware ADS-B
Mon 08:11:30 PM 41.9690 -87.4810 293° West 184 212 5,000  Level FlightAware ADS-B
Mon 08:11:42 PM 41.9720 -87.4910 292° West 184 212 5,000  Level FlightAware ADS-B
Mon 08:11:55 PM 41.9760 -87.5050 291° West 184 212 5,000  Level FlightAware ADS-B
Mon 08:12:20 PM 41.9830 -87.5320 289° West 183 211 5,000  Level FlightAware ADS-B
Mon 08:13:00 PM 41.9830 -87.5780 270° West 181 208 5,000 -265 Level FlightAware ADS-B
Mon 08:13:28 PM 41.9840 -87.6080 273° West 169 194 4,700 -857 Descending FlightAware ADS-B
Mon 08:13:56 PM 41.9840 -87.6360 270° West 170 196 4,200 -857 Descending FlightAware ADS-B
Mon 08:14:24 PM 41.9840 -87.6650 270° West 157 181 3,900 -750 Descending FlightAware ADS-B
Mon 08:14:52 PM 41.9840 -87.6940 270° West 153 176 3,500 -828 Descending FlightAware ADS-B
Mon 08:15:22 PM 41.9840 -87.7230 270° West 153 176 3,100 -828 Descending FlightAware ADS-B
Mon 08:15:50 PM 41.9840 -87.7490 270° West 153 176 2,700 -778 Descending FlightAware ADS-B
Mon 08:16:16 PM 41.9840 -87.7730 270° West 150 173 2,400 -778 Descending FlightAware ADS-B
Mon 08:16:44 PM 41.9840 -87.7970 270° West 127 146 2,000 -737 Descending FlightAware ADS-B
Mon 08:17:13 PM 41.9840 -87.8190 270° West 130 150 1,700 -667 Descending FlightAware ADS-B
Mon 08:17:38 PM 41.9840 -87.8390 270° West 132 152 1,400 -706 Descending FlightAware ADS-B
Mon 08:18:04 PM 41.9840 -87.8630 270° West 137 158 1,100 -652 Descending FlightAware ADS-B
Mon 08:18:24 PM 41.9840 -87.8800 270° West 139 160 900 -600 Descending FlightAware ADS-B
Mon 08:19:03 PM 41.9840 -87.9070 270° West 57 66 -1,385 Descending FlightAware ADS-B
Mon 08:19:20 PM 41.9840 -87.9110 270° West 33 38  Level FlightAware ADS-B
Mon 08:19:50 PM 41.9840 -87.9160 270° West 24 28  Level FlightAware ADS-B
Mon 08:20:18 PM 41.9830 -87.9160 180° South 19 22  Level FlightAware ADS-B
Mon 08:21:14 PM 41.9830 -87.9150 90° East 13 15  Level FlightAware ADS-B
Mon 08:22:18 PM 41.9830 -87.9140 90° East  Level FlightAware ADS-B

Login

Don't have an account? Register now (free) for customized features, flight alerts, and more!